sensor_id;sensor_type;location;lat;lon;timestamp;temperature;humidity
21676;DHT22;10999;51.332;9.458;2023-07-13T00:01:53;18.40;55.50
21676;DHT22;10999;51.332;9.458;2023-07-13T00:04:22;18.40;55.70
21676;DHT22;10999;51.332;9.458;2023-07-13T00:06:52;18.40;56.40
21676;DHT22;10999;51.332;9.458;2023-07-13T00:09:20;18.40;55.40
21676;DHT22;10999;51.332;9.458;2023-07-13T00:11:53;18.40;56.30
21676;DHT22;10999;51.332;9.458;2023-07-13T00:14:20;18.40;56.10
21676;DHT22;10999;51.332;9.458;2023-07-13T00:16:48;18.40;56.00
21676;DHT22;10999;51.332;9.458;2023-07-13T00:19:15;18.40;57.50
21676;DHT22;10999;51.332;9.458;2023-07-13T00:21:42;18.40;57.20
21676;DHT22;10999;51.332;9.458;2023-07-13T00:24:12;18.40;58.90
21676;DHT22;10999;51.332;9.458;2023-07-13T00:26:40;18.30;59.00
21676;DHT22;10999;51.332;9.458;2023-07-13T00:29:07;18.30;59.00
21676;DHT22;10999;51.332;9.458;2023-07-13T00:31:35;18.30;59.40
21676;DHT22;10999;51.332;9.458;2023-07-13T00:34:02;18.20;60.20
21676;DHT22;10999;51.332;9.458;2023-07-13T00:36:30;18.20;60.00
21676;DHT22;10999;51.332;9.458;2023-07-13T00:38:57;18.20;60.80
21676;DHT22;10999;51.332;9.458;2023-07-13T00:41:24;18.20;60.30
21676;DHT22;10999;51.332;9.458;2023-07-13T00:43:50;18.20;61.20
21676;DHT22;10999;51.332;9.458;2023-07-13T00:46:19;18.10;61.80
21676;DHT22;10999;51.332;9.458;2023-07-13T00:48:48;18.10;62.30
21676;DHT22;10999;51.332;9.458;2023-07-13T00:51:22;18.10;62.50
21676;DHT22;10999;51.332;9.458;2023-07-13T00:53:51;18.10;62.30
21676;DHT22;10999;51.332;9.458;2023-07-13T00:56:19;18.00;63.50
21676;DHT22;10999;51.332;9.458;2023-07-13T00:58:46;18.00;64.40
21676;DHT22;10999;51.332;9.458;2023-07-13T01:01:13;17.90;63.70
21676;DHT22;10999;51.332;9.458;2023-07-13T01:03:40;17.90;63.50
21676;DHT22;10999;51.332;9.458;2023-07-13T01:06:07;17.90;63.40
21676;DHT22;10999;51.332;9.458;2023-07-13T01:08:35;17.90;63.40
21676;DHT22;10999;51.332;9.458;2023-07-13T01:11:02;17.90;63.50
21676;DHT22;10999;51.332;9.458;2023-07-13T01:13:29;17.90;64.70
21676;DHT22;10999;51.332;9.458;2023-07-13T01:15:58;17.90;64.30
21676;DHT22;10999;51.332;9.458;2023-07-13T01:18:27;17.90;64.10
21676;DHT22;10999;51.332;9.458;2023-07-13T01:20:55;17.90;64.50
21676;DHT22;10999;51.332;9.458;2023-07-13T01:23:23;17.90;64.50
21676;DHT22;10999;51.332;9.458;2023-07-13T01:25:52;17.90;64.80
21676;DHT22;10999;51.332;9.458;2023-07-13T01:28:19;18.00;65.80
21676;DHT22;10999;51.332;9.458;2023-07-13T01:30:47;18.00;66.30
21676;DHT22;10999;51.332;9.458;2023-07-13T01:33:15;17.90;66.80
21676;DHT22;10999;51.332;9.458;2023-07-13T01:35:44;17.90;70.10
21676;DHT22;10999;51.332;9.458;2023-07-13T01:38:13;17.90;71.00
21676;DHT22;10999;51.332;9.458;2023-07-13T01:40:40;17.90;70.10
21676;DHT22;10999;51.332;9.458;2023-07-13T01:43:07;17.90;70.20
21676;DHT22;10999;51.332;9.458;2023-07-13T01:45:33;17.80;70.10
21676;DHT22;10999;51.332;9.458;2023-07-13T01:48:01;17.80;70.20
21676;DHT22;10999;51.332;9.458;2023-07-13T01:50:28;17.70;71.10
21676;DHT22;10999;51.332;9.458;2023-07-13T01:52:54;17.70;68.90
21676;DHT22;10999;51.332;9.458;2023-07-13T01:55:22;17.60;67.70
21676;DHT22;10999;51.332;9.458;2023-07-13T01:57:49;17.60;67.50
21676;DHT22;10999;51.332;9.458;2023-07-13T02:00:16;17.60;67.30
21676;DHT22;10999;51.332;9.458;2023-07-13T02:02:43;17.60;66.80
21676;DHT22;10999;51.332;9.458;2023-07-13T02:05:12;17.60;66.30
21676;DHT22;10999;51.332;9.458;2023-07-13T02:07:40;17.50;66.40
21676;DHT22;10999;51.332;9.458;2023-07-13T02:10:08;17.60;66.80
21676;DHT22;10999;51.332;9.458;2023-07-13T02:12:36;17.50;68.90
21676;DHT22;10999;51.332;9.458;2023-07-13T02:15:03;17.50;70.20
21676;DHT22;10999;51.332;9.458;2023-07-13T02:17:31;17.50;70.30
21676;DHT22;10999;51.332;9.458;2023-07-13T02:19:58;17.50;70.50
21676;DHT22;10999;51.332;9.458;2023-07-13T02:22:25;17.40;71.30
21676;DHT22;10999;51.332;9.458;2023-07-13T02:24:52;17.40;71.30
21676;DHT22;10999;51.332;9.458;2023-07-13T02:27:19;17.30;71.30
21676;DHT22;10999;51.332;9.458;2023-07-13T02:29:45;17.20;72.50
21676;DHT22;10999;51.332;9.458;2023-07-13T02:32:12;17.10;74.00
21676;DHT22;10999;51.332;9.458;2023-07-13T02:34:40;17.00;73.70
21676;DHT22;10999;51.332;9.458;2023-07-13T02:37:07;16.90;74.70
21676;DHT22;10999;51.332;9.458;2023-07-13T02:39:34;16.90;74.10
21676;DHT22;10999;51.332;9.458;2023-07-13T02:42:01;16.80;73.70
21676;DHT22;10999;51.332;9.458;2023-07-13T02:44:27;16.70;74.00
21676;DHT22;10999;51.332;9.458;2023-07-13T02:46:54;16.60;74.00
21676;DHT22;10999;51.332;9.458;2023-07-13T02:49:21;16.60;74.90
21676;DHT22;10999;51.332;9.458;2023-07-13T02:51:48;16.50;76.00
21676;DHT22;10999;51.332;9.458;2023-07-13T02:54:14;16.40;76.40
21676;DHT22;10999;51.332;9.458;2023-07-13T02:56:42;16.30;77.20
21676;DHT22;10999;51.332;9.458;2023-07-13T02:59:10;16.30;77.40
21676;DHT22;10999;51.332;9.458;2023-07-13T03:01:37;16.20;78.00
21676;DHT22;10999;51.332;9.458;2023-07-13T03:04:04;16.20;78.60
21676;DHT22;10999;51.332;9.458;2023-07-13T03:06:32;16.10;78.60
21676;DHT22;10999;51.332;9.458;2023-07-13T03:08:59;16.10;79.00
21676;DHT22;10999;51.332;9.458;2023-07-13T03:11:27;16.00;78.70
21676;DHT22;10999;51.332;9.458;2023-07-13T03:13:54;15.90;78.90
21676;DHT22;10999;51.332;9.458;2023-07-13T03:16:21;15.90;79.00
21676;DHT22;10999;51.332;9.458;2023-07-13T03:18:49;15.80;79.80
21676;DHT22;10999;51.332;9.458;2023-07-13T03:21:16;15.80;80.10
21676;DHT22;10999;51.332;9.458;2023-07-13T03:23:43;15.80;79.80
21676;DHT22;10999;51.332;9.458;2023-07-13T03:26:18;15.80;79.30
21676;DHT22;10999;51.332;9.458;2023-07-13T03:28:46;15.70;79.10
21676;DHT22;10999;51.332;9.458;2023-07-13T03:31:18;15.80;79.00
21676;DHT22;10999;51.332;9.458;2023-07-13T03:33:46;15.70;79.20
21676;DHT22;10999;51.332;9.458;2023-07-13T03:36:17;15.70;79.10
21676;DHT22;10999;51.332;9.458;2023-07-13T03:38:48;15.70;78.60
21676;DHT22;10999;51.332;9.458;2023-07-13T03:41:16;15.70;77.50
21676;DHT22;10999;51.332;9.458;2023-07-13T03:43:43;15.70;77.20
21676;DHT22;10999;51.332;9.458;2023-07-13T03:46:10;15.60;77.70
21676;DHT22;10999;51.332;9.458;2023-07-13T03:48:38;15.70;77.60
21676;DHT22;10999;51.332;9.458;2023-07-13T03:51:06;15.60;77.50
21676;DHT22;10999;51.332;9.458;2023-07-13T03:53:35;15.60;78.30
21676;DHT22;10999;51.332;9.458;2023-07-13T03:56:01;15.60;78.10
21676;DHT22;10999;51.332;9.458;2023-07-13T03:58:35;15.60;77.40
21676;DHT22;10999;51.332;9.458;2023-07-13T04:01:03;15.60;75.90
21676;DHT22;10999;51.332;9.458;2023-07-13T04:03:32;15.60;75.60
21676;DHT22;10999;51.332;9.458;2023-07-13T04:06:05;15.60;73.40
21676;DHT22;10999;51.332;9.458;2023-07-13T04:08:34;15.70;73.60
21676;DHT22;10999;51.332;9.458;2023-07-13T04:11:03;15.60;73.70
21676;DHT22;10999;51.332;9.458;2023-07-13T04:13:30;15.70;74.10
21676;DHT22;10999;51.332;9.458;2023-07-13T04:15:56;15.70;74.00
21676;DHT22;10999;51.332;9.458;2023-07-13T04:18:23;15.70;74.10
21676;DHT22;10999;51.332;9.458;2023-07-13T04:20:51;15.80;74.50
21676;DHT22;10999;51.332;9.458;2023-07-13T04:23:18;15.80;74.80
21676;DHT22;10999;51.332;9.458;2023-07-13T04:25:51;15.80;75.30
21676;DHT22;10999;51.332;9.458;2023-07-13T04:28:23;15.90;75.40
21676;DHT22;10999;51.332;9.458;2023-07-13T04:30:51;15.90;74.90
21676;DHT22;10999;51.332;9.458;2023-07-13T04:33:18;15.90;74.60
21676;DHT22;10999;51.332;9.458;2023-07-13T04:35:50;15.90;74.30
21676;DHT22;10999;51.332;9.458;2023-07-13T04:38:24;15.90;74.20
21676;DHT22;10999;51.332;9.458;2023-07-13T04:40:53;16.00;73.80
21676;DHT22;10999;51.332;9.458;2023-07-13T04:43:20;16.00;73.50
21676;DHT22;10999;51.332;9.458;2023-07-13T04:45:47;16.00;74.00
21676;DHT22;10999;51.332;9.458;2023-07-13T04:48:14;15.90;73.60
21676;DHT22;10999;51.332;9.458;2023-07-13T04:50:41;16.00;72.80
21676;DHT22;10999;51.332;9.458;2023-07-13T04:53:07;16.00;72.50
21676;DHT22;10999;51.332;9.458;2023-07-13T04:55:34;16.00;73.00
21676;DHT22;10999;51.332;9.458;2023-07-13T04:58:01;16.00;73.10
21676;DHT22;10999;51.332;9.458;2023-07-13T05:00:29;16.10;72.60
21676;DHT22;10999;51.332;9.458;2023-07-13T05:02:58;16.10;71.30
21676;DHT22;10999;51.332;9.458;2023-07-13T05:05:26;16.10;69.60
21676;DHT22;10999;51.332;9.458;2023-07-13T05:07:53;16.20;69.20
21676;DHT22;10999;51.332;9.458;2023-07-13T05:10:21;16.20;69.20
21676;DHT22;10999;51.332;9.458;2023-07-13T05:12:48;16.30;69.20
21676;DHT22;10999;51.332;9.458;2023-07-13T05:15:15;16.50;68.00
21676;DHT22;10999;51.332;9.458;2023-07-13T05:17:42;16.50;68.50
21676;DHT22;10999;51.332;9.458;2023-07-13T05:20:09;16.60;67.70
21676;DHT22;10999;51.332;9.458;2023-07-13T05:22:36;16.80;67.80
21676;DHT22;10999;51.332;9.458;2023-07-13T05:25:05;16.90;66.20
21676;DHT22;10999;51.332;9.458;2023-07-13T05:27:34;17.00;64.40
21676;DHT22;10999;51.332;9.458;2023-07-13T05:30:02;17.00;63.80
21676;DHT22;10999;51.332;9.458;2023-07-13T05:32:30;17.10;65.50
21676;DHT22;10999;51.332;9.458;2023-07-13T05:34:56;17.20;61.70
21676;DHT22;10999;51.332;9.458;2023-07-13T05:37:23;17.30;64.10
21676;DHT22;10999;51.332;9.458;2023-07-13T05:39:50;17.40;64.20
21676;DHT22;10999;51.332;9.458;2023-07-13T05:42:17;17.40;63.60
21676;DHT22;10999;51.332;9.458;2023-07-13T05:44:43;17.60;62.30
21676;DHT22;10999;51.332;9.458;2023-07-13T05:47:10;17.60;60.50
21676;DHT22;10999;51.332;9.458;2023-07-13T05:49:37;17.70;61.10
21676;DHT22;10999;51.332;9.458;2023-07-13T05:52:05;17.80;59.90
21676;DHT22;10999;51.332;9.458;2023-07-13T05:54:31;17.80;58.60
21676;DHT22;10999;51.332;9.458;2023-07-13T05:56:58;18.00;58.80
21676;DHT22;10999;51.332;9.458;2023-07-13T05:59:26;18.10;56.50
21676;DHT22;10999;51.332;9.458;2023-07-13T06:01:53;18.20;57.80
21676;DHT22;10999;51.332;9.458;2023-07-13T06:04:20;18.20;50.90
21676;DHT22;10999;51.332;9.458;2023-07-13T06:06:47;18.30;52.40
21676;DHT22;10999;51.332;9.458;2023-07-13T06:09:14;18.40;48.70
21676;DHT22;10999;51.332;9.458;2023-07-13T06:11:42;18.40;48.70
21676;DHT22;10999;51.332;9.458;2023-07-13T06:14:09;18.50;49.90
21676;DHT22;10999;51.332;9.458;2023-07-13T06:16:35;18.50;48.80
21676;DHT22;10999;51.332;9.458;2023-07-13T06:19:02;18.60;49.60
21676;DHT22;10999;51.332;9.458;2023-07-13T06:21:29;18.70;49.80
21676;DHT22;10999;51.332;9.458;2023-07-13T06:23:56;18.80;46.80
21676;DHT22;10999;51.332;9.458;2023-07-13T06:26:22;18.90;46.10
21676;DHT22;10999;51.332;9.458;2023-07-13T06:28:49;18.90;42.40
21676;DHT22;10999;51.332;9.458;2023-07-13T06:31:16;19.00;43.20
21676;DHT22;10999;51.332;9.458;2023-07-13T06:33:44;19.00;43.10
21676;DHT22;10999;51.332;9.458;2023-07-13T06:36:11;19.10;43.60
21676;DHT22;10999;51.332;9.458;2023-07-13T06:38:38;19.30;43.90
21676;DHT22;10999;51.332;9.458;2023-07-13T06:41:07;19.40;43.10
21676;DHT22;10999;51.332;9.458;2023-07-13T06:43:34;19.50;41.40
21676;DHT22;10999;51.332;9.458;2023-07-13T06:46:01;19.70;42.10
21676;DHT22;10999;51.332;9.458;2023-07-13T06:48:28;19.70;42.20
21676;DHT22;10999;51.332;9.458;2023-07-13T06:50:55;19.80;40.90
21676;DHT22;10999;51.332;9.458;2023-07-13T06:53:23;19.90;39.70
21676;DHT22;10999;51.332;9.458;2023-07-13T06:55:49;20.00;38.50
21676;DHT22;10999;51.332;9.458;2023-07-13T06:58:17;20.00;39.00
21676;DHT22;10999;51.332;9.458;2023-07-13T07:00:44;20.10;38.00
21676;DHT22;10999;51.332;9.458;2023-07-13T07:03:12;20.10;37.70
21676;DHT22;10999;51.332;9.458;2023-07-13T07:05:39;20.10;37.00
21676;DHT22;10999;51.332;9.458;2023-07-13T07:08:06;20.30;38.70
21676;DHT22;10999;51.332;9.458;2023-07-13T07:10:34;20.40;37.50
21676;DHT22;10999;51.332;9.458;2023-07-13T07:13:01;20.50;35.80
21676;DHT22;10999;51.332;9.458;2023-07-13T07:15:28;20.60;37.30
21676;DHT22;10999;51.332;9.458;2023-07-13T07:17:55;20.70;34.50
21676;DHT22;10999;51.332;9.458;2023-07-13T07:20:22;20.80;34.90
21676;DHT22;10999;51.332;9.458;2023-07-13T07:22:49;20.90;35.30
21676;DHT22;10999;51.332;9.458;2023-07-13T07:25:16;21.10;33.50
21676;DHT22;10999;51.332;9.458;2023-07-13T07:27:43;21.20;35.30
21676;DHT22;10999;51.332;9.458;2023-07-13T07:30:13;21.30;33.70
21676;DHT22;10999;51.332;9.458;2023-07-13T07:32:43;21.40;32.50
21676;DHT22;10999;51.332;9.458;2023-07-13T07:35:12;21.50;31.80
21676;DHT22;10999;51.332;9.458;2023-07-13T07:37:39;21.70;32.30
21676;DHT22;10999;51.332;9.458;2023-07-13T07:40:09;21.90;32.10
21676;DHT22;10999;51.332;9.458;2023-07-13T07:42:38;22.10;31.40
21676;DHT22;10999;51.332;9.458;2023-07-13T07:45:06;22.40;30.40
21676;DHT22;10999;51.332;9.458;2023-07-13T07:47:33;22.60;29.40
21676;DHT22;10999;51.332;9.458;2023-07-13T07:49:59;22.70;29.60
21676;DHT22;10999;51.332;9.458;2023-07-13T07:52:26;22.80;29.60
21676;DHT22;10999;51.332;9.458;2023-07-13T07:54:53;23.00;30.90
21676;DHT22;10999;51.332;9.458;2023-07-13T07:57:23;23.00;29.40
21676;DHT22;10999;51.332;9.458;2023-07-13T07:59:52;22.80;27.90
21676;DHT22;10999;51.332;9.458;2023-07-13T08:02:22;22.70;28.70
21676;DHT22;10999;51.332;9.458;2023-07-13T08:04:52;22.60;28.30
21676;DHT22;10999;51.332;9.458;2023-07-13T08:07:22;22.80;28.80
21676;DHT22;10999;51.332;9.458;2023-07-13T08:09:55;23.00;30.00
21676;DHT22;10999;51.332;9.458;2023-07-13T08:12:21;23.00;27.70
21676;DHT22;10999;51.332;9.458;2023-07-13T08:14:52;22.90;27.70
21676;DHT22;10999;51.332;9.458;2023-07-13T08:17:24;22.90;29.80
21676;DHT22;10999;51.332;9.458;2023-07-13T08:19:52;23.10;29.70
21676;DHT22;10999;51.332;9.458;2023-07-13T08:22:19;23.20;25.40
21676;DHT22;10999;51.332;9.458;2023-07-13T08:24:46;23.20;28.10
21676;DHT22;10999;51.332;9.458;2023-07-13T08:27:13;22.70;27.20
21676;DHT22;10999;51.332;9.458;2023-07-13T08:29:40;22.60;27.80
21676;DHT22;10999;51.332;9.458;2023-07-13T08:32:07;22.60;29.40
21676;DHT22;10999;51.332;9.458;2023-07-13T08:34:36;22.70;27.50
21676;DHT22;10999;51.332;9.458;2023-07-13T08:37:03;23.00;28.80
21676;DHT22;10999;51.332;9.458;2023-07-13T08:39:31;22.90;25.70
21676;DHT22;10999;51.332;9.458;2023-07-13T08:42:05;22.90;25.70
21676;DHT22;10999;51.332;9.458;2023-07-13T08:47:21;22.90;28.80
21676;DHT22;10999;51.332;9.458;2023-07-13T08:49:48;22.60;26.70
21676;DHT22;10999;51.332;9.458;2023-07-13T08:52:29;22.40;26.90
21676;DHT22;10999;51.332;9.458;2023-07-13T08:54:58;22.20;25.00
21676;DHT22;10999;51.332;9.458;2023-07-13T08:57:33;22.30;28.20
21676;DHT22;10999;51.332;9.458;2023-07-13T09:00:00;22.40;25.60
21676;DHT22;10999;51.332;9.458;2023-07-13T09:02:41;22.60;25.80
21676;DHT22;10999;51.332;9.458;2023-07-13T09:05:26;22.70;24.80
21676;DHT22;10999;51.332;9.458;2023-07-13T09:10:49;23.00;24.90
21676;DHT22;10999;51.332;9.458;2023-07-13T09:15:59;23.40;25.40
21676;DHT22;10999;51.332;9.458;2023-07-13T09:18:33;23.60;20.70
21676;DHT22;10999;51.332;9.458;2023-07-13T09:21:10;23.60;21.80
21676;DHT22;10999;51.332;9.458;2023-07-13T09:23:38;23.70;19.60
21676;DHT22;10999;51.332;9.458;2023-07-13T09:28:44;24.10;19.80
21676;DHT22;10999;51.332;9.458;2023-07-13T09:33:42;24.20;17.40
21676;DHT22;10999;51.332;9.458;2023-07-13T09:36:28;23.90;18.70
21676;DHT22;10999;51.332;9.458;2023-07-13T09:44:38;24.10;20.20
21676;DHT22;10999;51.332;9.458;2023-07-13T09:47:20;24.10;18.40
21676;DHT22;10999;51.332;9.458;2023-07-13T09:52:41;24.00;20.00
21676;DHT22;10999;51.332;9.458;2023-07-13T09:55:29;24.10;18.60
21676;DHT22;10999;51.332;9.458;2023-07-13T09:57:57;24.10;18.80
21676;DHT22;10999;51.332;9.458;2023-07-13T10:00:27;24.20;18.20
21676;DHT22;10999;51.332;9.458;2023-07-13T10:05:40;24.50;18.40
21676;DHT22;10999;51.332;9.458;2023-07-13T10:08:36;24.70;19.80
21676;DHT22;10999;51.332;9.458;2023-07-13T10:11:12;24.80;19.10
21676;DHT22;10999;51.332;9.458;2023-07-13T10:14:01;24.80;18.60
21676;DHT22;10999;51.332;9.458;2023-07-13T10:16:31;24.40;17.50
21676;DHT22;10999;51.332;9.458;2023-07-13T10:19:09;24.10;18.30
21676;DHT22;10999;51.332;9.458;2023-07-13T10:22:14;23.80;18.50
21676;DHT22;10999;51.332;9.458;2023-07-13T10:24:43;23.40;18.80
21676;DHT22;10999;51.332;9.458;2023-07-13T10:27:20;23.10;19.60
21676;DHT22;10999;51.332;9.458;2023-07-13T10:29:59;22.80;19.90
21676;DHT22;10999;51.332;9.458;2023-07-13T10:32:27;22.60;21.70
21676;DHT22;10999;51.332;9.458;2023-07-13T10:34:54;22.80;24.90
21676;DHT22;10999;51.332;9.458;2023-07-13T10:37:26;23.10;21.80
21676;DHT22;10999;51.332;9.458;2023-07-13T10:39:55;23.40;22.30
21676;DHT22;10999;51.332;9.458;2023-07-13T10:42:36;23.50;20.00
21676;DHT22;10999;51.332;9.458;2023-07-13T10:45:15;23.20;21.00
21676;DHT22;10999;51.332;9.458;2023-07-13T10:47:44;23.10;20.30
21676;DHT22;10999;51.332;9.458;2023-07-13T10:50:20;22.90;20.70
21676;DHT22;10999;51.332;9.458;2023-07-13T10:52:50;22.90;21.90
21676;DHT22;10999;51.332;9.458;2023-07-13T10:55:31;22.90;21.50
21676;DHT22;10999;51.332;9.458;2023-07-13T10:58:19;23.00;22.40
21676;DHT22;10999;51.332;9.458;2023-07-13T11:00:51;23.40;25.30
21676;DHT22;10999;51.332;9.458;2023-07-13T11:03:22;23.60;22.70
21676;DHT22;10999;51.332;9.458;2023-07-13T11:05:51;23.60;18.90
21676;DHT22;10999;51.332;9.458;2023-07-13T11:10:58;23.00;20.00
21676;DHT22;10999;51.332;9.458;2023-07-13T11:16:26;22.90;23.70
21676;DHT22;10999;51.332;9.458;2023-07-13T11:21:29;23.20;19.50
21676;DHT22;10999;51.332;9.458;2023-07-13T11:31:42;23.70;20.60
21676;DHT22;10999;51.332;9.458;2023-07-13T11:34:14;23.70;20.00
21676;DHT22;10999;51.332;9.458;2023-07-13T11:36:45;23.80;19.40
21676;DHT22;10999;51.332;9.458;2023-07-13T11:39:34;24.00;18.70
21676;DHT22;10999;51.332;9.458;2023-07-13T11:42:08;24.20;17.40
21676;DHT22;10999;51.332;9.458;2023-07-13T11:44:42;24.50;19.20
21676;DHT22;10999;51.332;9.458;2023-07-13T11:47:30;24.60;17.20
21676;DHT22;10999;51.332;9.458;2023-07-13T11:49:57;24.50;18.30
21676;DHT22;10999;51.332;9.458;2023-07-13T11:52:33;24.40;17.30
21676;DHT22;10999;51.332;9.458;2023-07-13T11:55:05;24.10;17.70
21676;DHT22;10999;51.332;9.458;2023-07-13T11:57:44;23.80;16.70
21676;DHT22;10999;51.332;9.458;2023-07-13T12:00:14;23.70;18.00
21676;DHT22;10999;51.332;9.458;2023-07-13T12:02:49;23.70;18.20
21676;DHT22;10999;51.332;9.458;2023-07-13T12:05:18;23.80;19.20
21676;DHT22;10999;51.332;9.458;2023-07-13T12:07:49;24.00;18.30
21676;DHT22;10999;51.332;9.458;2023-07-13T12:10:27;24.00;16.80
21676;DHT22;10999;51.332;9.458;2023-07-13T12:13:02;24.20;16.70
21676;DHT22;10999;51.332;9.458;2023-07-13T12:15:40;24.10;16.60
21676;DHT22;10999;51.332;9.458;2023-07-13T12:18:18;24.10;16.10
21676;DHT22;10999;51.332;9.458;2023-07-13T12:20:47;24.00;17.60
21676;DHT22;10999;51.332;9.458;2023-07-13T12:25:52;24.60;16.80
21676;DHT22;10999;51.332;9.458;2023-07-13T12:28:32;24.80;17.00
21676;DHT22;10999;51.332;9.458;2023-07-13T12:31:26;24.60;17.00
21676;DHT22;10999;51.332;9.458;2023-07-13T12:34:11;24.10;18.50
21676;DHT22;10999;51.332;9.458;2023-07-13T12:39:22;23.20;21.20
21676;DHT22;10999;51.332;9.458;2023-07-13T12:41:52;23.00;21.50
21676;DHT22;10999;51.332;9.458;2023-07-13T12:44:26;23.20;24.20
21676;DHT22;10999;51.332;9.458;2023-07-13T12:47:03;23.60;23.50
21676;DHT22;10999;51.332;9.458;2023-07-13T12:49:33;23.80;21.80
21676;DHT22;10999;51.332;9.458;2023-07-13T12:52:04;23.80;20.20
21676;DHT22;10999;51.332;9.458;2023-07-13T12:54:39;23.80;21.20
21676;DHT22;10999;51.332;9.458;2023-07-13T12:57:17;23.80;19.70
21676;DHT22;10999;51.332;9.458;2023-07-13T12:59:44;23.80;19.20
21676;DHT22;10999;51.332;9.458;2023-07-13T13:02:30;23.80;18.20
21676;DHT22;10999;51.332;9.458;2023-07-13T13:05:02;23.90;19.10
21676;DHT22;10999;51.332;9.458;2023-07-13T13:07:30;24.00;19.40
21676;DHT22;10999;51.332;9.458;2023-07-13T13:09:57;23.90;18.70
21676;DHT22;10999;51.332;9.458;2023-07-13T13:12:24;23.90;19.00
21676;DHT22;10999;51.332;9.458;2023-07-13T13:14:53;23.80;19.70
21676;DHT22;10999;51.332;9.458;2023-07-13T13:17:21;23.90;19.80
21676;DHT22;10999;51.332;9.458;2023-07-13T13:19:51;23.80;19.20
21676;DHT22;10999;51.332;9.458;2023-07-13T13:22:21;23.80;20.20
21676;DHT22;10999;51.332;9.458;2023-07-13T13:24:48;23.80;20.20
21676;DHT22;10999;51.332;9.458;2023-07-13T13:27:16;23.80;20.00
21676;DHT22;10999;51.332;9.458;2023-07-13T13:29:44;23.70;21.80
21676;DHT22;10999;51.332;9.458;2023-07-13T13:32:13;23.80;20.00
21676;DHT22;10999;51.332;9.458;2023-07-13T13:34:41;23.80;19.30
21676;DHT22;10999;51.332;9.458;2023-07-13T13:37:20;23.80;18.10
21676;DHT22;10999;51.332;9.458;2023-07-13T13:39:49;23.70;19.00
21676;DHT22;10999;51.332;9.458;2023-07-13T13:42:32;23.60;20.80
21676;DHT22;10999;51.332;9.458;2023-07-13T13:45:00;23.60;19.90
21676;DHT22;10999;51.332;9.458;2023-07-13T13:47:31;23.70;20.00
21676;DHT22;10999;51.332;9.458;2023-07-13T13:49:59;23.70;21.80
21676;DHT22;10999;51.332;9.458;2023-07-13T13:52:27;23.80;22.10
21676;DHT22;10999;51.332;9.458;2023-07-13T13:54:54;24.00;18.40
21676;DHT22;10999;51.332;9.458;2023-07-13T13:57:23;24.10;17.20
21676;DHT22;10999;51.332;9.458;2023-07-13T13:59:51;24.00;17.20
21676;DHT22;10999;51.332;9.458;2023-07-13T14:02:25;24.00;17.80
21676;DHT22;10999;51.332;9.458;2023-07-13T14:04:56;24.00;17.60
21676;DHT22;10999;51.332;9.458;2023-07-13T14:07:24;24.00;17.20
21676;DHT22;10999;51.332;9.458;2023-07-13T14:09:53;23.80;18.10
21676;DHT22;10999;51.332;9.458;2023-07-13T14:12:20;23.90;19.10
21676;DHT22;10999;51.332;9.458;2023-07-13T14:14:47;23.90;19.20
21676;DHT22;10999;51.332;9.458;2023-07-13T14:17:20;23.80;18.30
21676;DHT22;10999;51.332;9.458;2023-07-13T14:19:51;23.60;17.30
21676;DHT22;10999;51.332;9.458;2023-07-13T14:22:24;23.50;19.00
21676;DHT22;10999;51.332;9.458;2023-07-13T14:24:53;23.50;20.40
21676;DHT22;10999;51.332;9.458;2023-07-13T14:27:21;23.40;19.10
21676;DHT22;10999;51.332;9.458;2023-07-13T14:29:48;23.20;19.20
21676;DHT22;10999;51.332;9.458;2023-07-13T14:32:16;23.30;21.40
21676;DHT22;10999;51.332;9.458;2023-07-13T14:34:43;23.30;20.00
21676;DHT22;10999;51.332;9.458;2023-07-13T14:37:15;23.30;20.70
21676;DHT22;10999;51.332;9.458;2023-07-13T14:39:47;23.30;19.20
21676;DHT22;10999;51.332;9.458;2023-07-13T14:42:16;23.20;20.00
21676;DHT22;10999;51.332;9.458;2023-07-13T14:44:43;23.10;19.50
21676;DHT22;10999;51.332;9.458;2023-07-13T14:47:10;23.00;20.00
21676;DHT22;10999;51.332;9.458;2023-07-13T14:49:40;23.00;19.60
21676;DHT22;10999;51.332;9.458;2023-07-13T14:52:15;23.00;20.60
21676;DHT22;10999;51.332;9.458;2023-07-13T14:54:44;23.10;20.30
21676;DHT22;10999;51.332;9.458;2023-07-13T14:57:15;23.20;20.50
21676;DHT22;10999;51.332;9.458;2023-07-13T14:59:42;23.40;20.50
21676;DHT22;10999;51.332;9.458;2023-07-13T15:02:29;23.70;19.10
21676;DHT22;10999;51.332;9.458;2023-07-13T15:04:57;23.80;19.00
21676;DHT22;10999;51.332;9.458;2023-07-13T15:07:24;23.90;21.20
21676;DHT22;10999;51.332;9.458;2023-07-13T15:09:52;23.90;17.90
21676;DHT22;10999;51.332;9.458;2023-07-13T15:12:18;24.00;20.40
21676;DHT22;10999;51.332;9.458;2023-07-13T15:14:46;24.10;18.10
21676;DHT22;10999;51.332;9.458;2023-07-13T15:17:36;24.10;18.40
21676;DHT22;10999;51.332;9.458;2023-07-13T15:20:16;24.10;20.50
21676;DHT22;10999;51.332;9.458;2023-07-13T15:22:44;24.20;19.20
21676;DHT22;10999;51.332;9.458;2023-07-13T15:25:16;24.20;19.10
21676;DHT22;10999;51.332;9.458;2023-07-13T15:27:43;24.20;18.90
21676;DHT22;10999;51.332;9.458;2023-07-13T15:30:11;24.10;18.10
21676;DHT22;10999;51.332;9.458;2023-07-13T15:32:42;23.90;16.60
21676;DHT22;10999;51.332;9.458;2023-07-13T15:35:21;24.00;18.80
21676;DHT22;10999;51.332;9.458;2023-07-13T15:37:50;24.10;18.70
21676;DHT22;10999;51.332;9.458;2023-07-13T15:40:18;24.00;17.90
21676;DHT22;10999;51.332;9.458;2023-07-13T15:42:48;24.20;19.00
21676;DHT22;10999;51.332;9.458;2023-07-13T15:45:21;24.20;16.70
21676;DHT22;10999;51.332;9.458;2023-07-13T15:47:49;24.40;17.40
21676;DHT22;10999;51.332;9.458;2023-07-13T15:50:24;24.50;17.90
21676;DHT22;10999;51.332;9.458;2023-07-13T15:52:53;24.80;17.00
21676;DHT22;10999;51.332;9.458;2023-07-13T15:55:21;24.50;16.90
21676;DHT22;10999;51.332;9.458;2023-07-13T15:57:50;24.40;17.00
21676;DHT22;10999;51.332;9.458;2023-07-13T16:00:26;24.40;17.60
21676;DHT22;10999;51.332;9.458;2023-07-13T16:02:53;24.30;17.80
21676;DHT22;10999;51.332;9.458;2023-07-13T16:05:21;24.20;17.40
21676;DHT22;10999;51.332;9.458;2023-07-13T16:07:51;24.10;17.90
21676;DHT22;10999;51.332;9.458;2023-07-13T16:10:24;24.10;17.80
21676;DHT22;10999;51.332;9.458;2023-07-13T16:12:53;24.00;18.20
21676;DHT22;10999;51.332;9.458;2023-07-13T16:15:21;24.00;17.70
21676;DHT22;10999;51.332;9.458;2023-07-13T16:17:48;24.10;17.70
21676;DHT22;10999;51.332;9.458;2023-07-13T16:20:18;24.00;17.90
21676;DHT22;10999;51.332;9.458;2023-07-13T16:22:49;24.00;18.30
21676;DHT22;10999;51.332;9.458;2023-07-13T16:25:19;23.90;17.50
21676;DHT22;10999;51.332;9.458;2023-07-13T16:27:47;23.60;18.80
21676;DHT22;10999;51.332;9.458;2023-07-13T16:30:23;23.40;19.50
21676;DHT22;10999;51.332;9.458;2023-07-13T16:32:53;23.30;19.50